createdAt,value
2023-05-13T00:01:24.426Z,15.00
2023-05-13T00:03:52.418Z,15.00
2023-05-13T00:06:20.487Z,14.90
2023-05-13T00:08:48.591Z,14.90
2023-05-13T00:11:17.994Z,14.90
2023-05-13T00:13:45.976Z,14.90
2023-05-13T00:16:13.984Z,14.80
2023-05-13T00:18:42.012Z,14.80
2023-05-13T00:21:10.412Z,14.80
2023-05-13T00:23:38.513Z,14.80
2023-05-13T00:26:07.899Z,14.80
2023-05-13T00:28:39.554Z,14.80
2023-05-13T00:31:07.690Z,14.80
2023-05-13T00:33:35.689Z,14.70
2023-05-13T00:36:03.975Z,14.60
2023-05-13T00:38:32.109Z,14.50
2023-05-13T00:41:00.170Z,14.50
2023-05-13T00:43:28.213Z,14.50
2023-05-13T00:45:57.994Z,14.40
2023-05-13T00:48:26.251Z,14.40
2023-05-13T00:50:54.315Z,14.30
2023-05-13T00:53:22.738Z,14.30
2023-05-13T00:55:50.782Z,14.30
2023-05-13T00:58:18.956Z,14.30
2023-05-13T01:00:54.844Z,14.30
2023-05-13T01:03:29.800Z,14.30
2023-05-13T01:06:07.073Z,14.20
2023-05-13T01:08:43.937Z,14.20
2023-05-13T01:11:18.467Z,14.30
2023-05-13T01:13:50.314Z,14.30
2023-05-13T01:16:23.210Z,14.30
2023-05-13T01:18:58.333Z,14.20
2023-05-13T01:21:37.493Z,14.10
2023-05-13T01:24:06.820Z,14.10
2023-05-13T01:26:34.857Z,14.00
2023-05-13T01:29:03.100Z,13.90
2023-05-13T01:31:31.367Z,13.90
2023-05-13T01:34:00.101Z,13.80
2023-05-13T01:36:29.599Z,13.80
2023-05-13T01:38:58.272Z,13.90
2023-05-13T01:41:26.494Z,13.90
2023-05-13T01:43:54.568Z,13.80
2023-05-13T01:46:22.590Z,13.80
2023-05-13T01:48:52.204Z,13.80
2023-05-13T01:51:20.183Z,13.70
2023-05-13T01:53:49.524Z,13.70
2023-05-13T01:56:17.523Z,13.70
2023-05-13T01:58:46.272Z,13.60
2023-05-13T02:01:15.596Z,13.50
2023-05-13T02:03:45.284Z,13.60
2023-05-13T02:06:13.353Z,13.50
2023-05-13T02:08:41.579Z,13.50
2023-05-13T02:11:10.950Z,13.50
2023-05-13T02:13:38.842Z,13.40
2023-05-13T02:16:07.435Z,13.40
2023-05-13T02:18:38.277Z,13.40
2023-05-13T02:21:06.691Z,13.40
2023-05-13T02:23:34.688Z,13.30
2023-05-13T02:26:02.866Z,13.30
2023-05-13T02:28:32.330Z,13.30
2023-05-13T02:31:00.655Z,13.30
2023-05-13T02:33:30.772Z,13.20
2023-05-13T02:36:00.378Z,13.20
2023-05-13T02:38:28.474Z,13.20
2023-05-13T02:40:56.533Z,13.20
2023-05-13T02:43:24.968Z,13.20
2023-05-13T02:45:54.594Z,13.20
2023-05-13T02:48:22.613Z,13.20
2023-05-13T02:50:51.335Z,13.20
2023-05-13T02:53:19.304Z,13.20
2023-05-13T02:55:47.448Z,13.20
2023-05-13T02:58:15.428Z,13.30
2023-05-13T03:00:44.094Z,13.20
2023-05-13T03:03:16.264Z,13.20
2023-05-13T03:05:44.338Z,13.10
2023-05-13T03:08:13.862Z,13.10
2023-05-13T03:10:41.952Z,13.00
2023-05-13T03:13:09.959Z,12.90
2023-05-13T03:15:37.946Z,12.90
2023-05-13T03:18:06.125Z,12.90
2023-05-13T03:20:37.885Z,12.90
2023-05-13T03:23:06.172Z,12.90
2023-05-13T03:25:37.127Z,12.80
2023-05-13T03:28:08.297Z,12.80
2023-05-13T03:30:36.394Z,12.70
2023-05-13T03:33:04.826Z,12.70
2023-05-13T03:35:33.333Z,12.70
2023-05-13T03:38:02.712Z,12.70
2023-05-13T03:40:30.739Z,12.70
2023-05-13T03:43:06.121Z,12.70
2023-05-13T03:45:34.108Z,12.70
2023-05-13T03:48:02.408Z,12.70
2023-05-13T03:50:30.416Z,12.70
2023-05-13T03:52:58.436Z,12.70
2023-05-13T03:55:29.275Z,12.60
2023-05-13T03:57:57.786Z,12.60
2023-05-13T04:00:25.974Z,12.60
2023-05-13T04:02:56.975Z,12.60
2023-05-13T04:05:27.224Z,12.60
2023-05-13T04:07:55.154Z,12.50
2023-05-13T04:10:23.642Z,12.50
2023-05-13T04:12:53.609Z,12.50
2023-05-13T04:15:21.676Z,12.50
2023-05-13T04:17:49.694Z,12.60
2023-05-13T04:20:17.840Z,12.60
2023-05-13T04:22:45.765Z,12.60
2023-05-13T04:25:14.071Z,12.60
2023-05-13T04:27:42.078Z,12.60
2023-05-13T04:30:12.486Z,12.60
2023-05-13T04:32:41.643Z,12.60
2023-05-13T04:35:10.180Z,12.60
2023-05-13T04:37:38.534Z,12.60
2023-05-13T04:40:09.542Z,12.60
2023-05-13T04:42:37.529Z,12.70
2023-05-13T04:45:06.822Z,12.70
2023-05-13T04:47:38.194Z,12.70
2023-05-13T04:50:07.670Z,12.70
2023-05-13T04:52:37.332Z,12.80
2023-05-13T04:55:08.349Z,12.80
2023-05-13T04:57:40.162Z,12.80
2023-05-13T05:00:09.566Z,12.90
2023-05-13T05:02:38.924Z,12.90
2023-05-13T05:05:11.607Z,13.00
2023-05-13T05:07:40.604Z,13.00
2023-05-13T05:10:09.636Z,13.10
2023-05-13T05:12:38.227Z,13.10
2023-05-13T05:15:11.430Z,13.20
2023-05-13T05:17:41.556Z,13.30
2023-05-13T05:20:11.421Z,13.30
2023-05-13T05:22:41.674Z,13.40
2023-05-13T05:25:10.650Z,13.50
2023-05-13T05:27:42.817Z,13.60
2023-05-13T05:32:57.259Z,13.80
2023-05-13T05:35:26.114Z,13.90
2023-05-13T05:37:56.457Z,14.00
2023-05-13T05:40:24.824Z,14.00
2023-05-13T05:42:52.793Z,14.10
2023-05-13T05:45:20.747Z,14.20
2023-05-13T05:47:48.668Z,14.30
2023-05-13T05:50:18.091Z,14.40
2023-05-13T05:52:46.156Z,14.40
2023-05-13T05:55:14.193Z,14.50
2023-05-13T05:57:42.213Z,14.50
2023-05-13T06:00:11.445Z,14.50
2023-05-13T06:02:39.491Z,14.50
2023-05-13T06:05:08.901Z,14.50
2023-05-13T06:07:38.189Z,14.60
2023-05-13T06:10:08.229Z,14.60
2023-05-13T06:12:36.385Z,14.70
2023-05-13T06:15:06.458Z,14.80
2023-05-13T06:17:34.553Z,14.90
2023-05-13T06:20:02.546Z,14.90
2023-05-13T06:22:30.545Z,15.00
2023-05-13T06:24:59.903Z,15.00
2023-05-13T06:27:27.863Z,15.10
2023-05-13T06:29:56.173Z,15.10
2023-05-13T06:32:24.107Z,15.20
2023-05-13T06:34:54.520Z,15.20
2023-05-13T06:37:23.759Z,15.30
2023-05-13T06:39:51.900Z,15.30
2023-05-13T06:42:21.192Z,15.30
2023-05-13T06:44:49.203Z,15.30
2023-05-13T06:47:17.175Z,15.40
2023-05-13T06:49:45.133Z,15.50
2023-05-13T06:52:13.064Z,15.60
2023-05-13T06:54:41.214Z,15.70
2023-05-13T06:57:09.931Z,15.70
2023-05-13T06:59:41.296Z,15.70
2023-05-13T07:02:11.243Z,15.80
2023-05-13T07:04:39.256Z,15.90
2023-05-13T07:07:07.219Z,16.00
2023-05-13T07:09:35.487Z,16.00
2023-05-13T07:12:03.552Z,16.00
2023-05-13T07:14:36.026Z,16.00
2023-05-13T07:17:06.147Z,16.00
2023-05-13T07:19:34.198Z,16.00
2023-05-13T07:22:02.092Z,16.10
2023-05-13T07:24:32.211Z,16.10
2023-05-13T07:27:03.996Z,16.10
2023-05-13T07:29:49.101Z,16.20
2023-05-13T07:32:18.573Z,16.10
2023-05-13T07:34:46.622Z,16.10
2023-05-13T07:37:15.051Z,16.00
2023-05-13T07:39:46.885Z,16.00
2023-05-13T07:42:15.280Z,16.00
2023-05-13T07:44:44.025Z,16.00
2023-05-13T07:47:13.682Z,16.00
2023-05-13T07:49:44.087Z,16.00
2023-05-13T07:52:12.127Z,16.10
2023-05-13T07:54:40.151Z,16.10
2023-05-13T07:57:08.224Z,16.20
2023-05-13T07:59:37.764Z,16.20
2023-05-13T08:02:06.016Z,16.20
2023-05-13T08:04:34.068Z,16.30
2023-05-13T08:07:03.607Z,16.30
2023-05-13T08:09:32.794Z,16.30
2023-05-13T08:12:00.815Z,16.30
2023-05-13T08:14:30.845Z,16.30
2023-05-13T08:16:59.065Z,16.40
2023-05-13T08:19:27.122Z,16.40
2023-05-13T08:21:55.538Z,16.40
2023-05-13T08:24:24.885Z,16.40
2023-05-13T08:26:52.910Z,16.50
2023-05-13T08:29:20.868Z,16.60
2023-05-13T08:31:48.862Z,16.60
2023-05-13T08:34:17.022Z,16.60
2023-05-13T08:36:45.001Z,16.70
2023-05-13T08:39:16.213Z,16.70
2023-05-13T08:41:47.278Z,16.80
2023-05-13T08:44:16.164Z,16.90
2023-05-13T08:46:53.800Z,17.00
2023-05-13T08:49:22.176Z,17.00
2023-05-13T08:51:50.892Z,16.90
2023-05-13T08:54:20.677Z,16.70
2023-05-13T08:56:58.892Z,16.70
2023-05-13T08:59:29.167Z,16.70
2023-05-13T09:02:00.253Z,16.80
2023-05-13T09:04:28.480Z,16.90
2023-05-13T09:06:57.801Z,16.80
2023-05-13T09:09:25.936Z,16.80
2023-05-13T09:11:55.989Z,16.90
2023-05-13T09:14:32.742Z,17.00
2023-05-13T09:17:02.260Z,17.00
2023-05-13T09:19:31.984Z,17.20
2023-05-13T09:22:00.453Z,17.20
2023-05-13T09:24:28.847Z,17.30
2023-05-13T09:27:00.276Z,17.30
2023-05-13T09:29:29.533Z,17.20
2023-05-13T09:31:59.218Z,17.30
2023-05-13T09:34:30.154Z,17.40
2023-05-13T09:37:05.740Z,17.50
2023-05-13T09:39:38.398Z,17.60
2023-05-13T09:42:17.080Z,17.50
2023-05-13T09:44:45.970Z,17.50
2023-05-13T09:47:15.185Z,17.50
2023-05-13T09:49:45.194Z,17.50
2023-05-13T09:52:17.810Z,17.50
2023-05-13T09:54:45.963Z,17.50
2023-05-13T09:57:16.294Z,17.50
2023-05-13T09:59:44.281Z,17.70
2023-05-13T10:02:16.437Z,17.70
2023-05-13T10:04:44.535Z,17.80
2023-05-13T10:07:13.252Z,17.90
2023-05-13T10:09:44.571Z,17.90
2023-05-13T10:12:17.293Z,17.80
2023-05-13T10:14:45.770Z,17.80
2023-05-13T10:17:14.508Z,17.80
2023-05-13T10:19:43.811Z,17.80
2023-05-13T10:22:14.557Z,17.90
2023-05-13T10:24:43.796Z,18.00
2023-05-13T10:27:13.569Z,18.10
2023-05-13T10:29:46.773Z,18.20
2023-05-13T10:32:18.366Z,18.20
2023-05-13T10:34:48.556Z,18.30
2023-05-13T10:37:54.730Z,18.30
2023-05-13T10:41:01.075Z,18.30
2023-05-13T10:43:30.090Z,18.40
2023-05-13T10:46:01.553Z,18.40
2023-05-13T10:48:40.836Z,18.40
2023-05-13T10:51:08.970Z,18.40
2023-05-13T10:53:46.493Z,18.40
2023-05-13T10:56:15.228Z,18.40
2023-05-13T10:58:43.334Z,18.40
2023-05-13T11:01:17.658Z,18.50
2023-05-13T11:03:56.772Z,18.50
2023-05-13T11:06:31.833Z,18.50
2023-05-13T11:09:01.015Z,18.50
2023-05-13T11:11:33.259Z,18.60
2023-05-13T11:14:20.989Z,18.60
2023-05-13T11:16:55.453Z,18.60
2023-05-13T11:19:27.169Z,18.60
2023-05-13T11:21:57.350Z,18.70
2023-05-13T11:24:27.437Z,18.80
2023-05-13T11:26:59.546Z,18.80
2023-05-13T11:29:32.339Z,18.80
2023-05-13T11:32:03.005Z,18.80
2023-05-13T11:34:35.218Z,18.70
2023-05-13T11:37:12.768Z,18.70
2023-05-13T11:39:42.163Z,18.70
2023-05-13T11:42:11.657Z,18.70
2023-05-13T11:44:52.681Z,18.80
2023-05-13T11:47:29.990Z,18.90
2023-05-13T11:49:59.080Z,18.90
2023-05-13T11:52:29.756Z,18.90
2023-05-13T11:55:02.405Z,18.90
2023-05-13T11:57:32.678Z,18.90
2023-05-13T12:00:09.424Z,19.00
2023-05-13T12:02:41.599Z,19.10
2023-05-13T12:05:19.129Z,19.00
2023-05-13T12:07:47.358Z,19.10
2023-05-13T12:10:15.556Z,19.10
2023-05-13T12:12:46.665Z,19.10
2023-05-13T12:15:17.354Z,19.10
2023-05-13T12:17:48.084Z,19.00
2023-05-13T12:20:17.519Z,19.20
2023-05-13T12:22:53.765Z,19.30
2023-05-13T12:25:51.293Z,19.30
2023-05-13T12:28:20.849Z,19.30
2023-05-13T12:30:53.714Z,19.40
2023-05-13T12:33:24.638Z,19.50
2023-05-13T12:35:53.938Z,19.50
2023-05-13T12:38:24.149Z,19.50
2023-05-13T12:40:53.120Z,19.50
2023-05-13T12:43:21.594Z,19.50
2023-05-13T12:45:54.869Z,19.50
2023-05-13T12:48:26.870Z,19.60
2023-05-13T12:50:56.386Z,19.60
2023-05-13T12:53:24.520Z,19.60
2023-05-13T12:55:52.579Z,19.60
2023-05-13T12:58:20.534Z,19.60
2023-05-13T13:00:48.537Z,19.70
2023-05-13T13:03:16.599Z,19.80
2023-05-13T13:05:46.789Z,19.90
2023-05-13T13:08:14.756Z,19.90
2023-05-13T13:10:42.813Z,19.80
2023-05-13T13:13:10.853Z,19.90
2023-05-13T13:15:43.115Z,19.80
2023-05-13T13:18:11.153Z,19.80
2023-05-13T13:20:39.248Z,19.80
2023-05-13T13:23:09.999Z,19.90
2023-05-13T13:25:38.082Z,19.90
2023-05-13T13:28:06.378Z,20.00
2023-05-13T13:30:34.287Z,20.00
2023-05-13T13:33:03.100Z,20.00
2023-05-13T13:35:31.244Z,20.00
2023-05-13T13:38:01.700Z,19.90
2023-05-13T13:40:33.539Z,19.80
2023-05-13T13:43:01.556Z,19.80
2023-05-13T13:45:30.498Z,19.80
2023-05-13T13:48:00.371Z,19.90
2023-05-13T13:50:29.100Z,19.90
2023-05-13T13:52:57.086Z,19.80
2023-05-13T13:55:25.740Z,19.80
2023-05-13T13:57:55.348Z,19.80
2023-05-13T14:00:23.621Z,19.70
2023-05-13T14:02:51.897Z,19.70
2023-05-13T14:05:21.885Z,19.70
2023-05-13T14:07:53.752Z,19.80
2023-05-13T14:10:22.040Z,19.80
2023-05-13T14:12:51.273Z,19.80
2023-05-13T14:15:22.621Z,19.90
2023-05-13T14:17:50.801Z,19.90
2023-05-13T14:20:18.954Z,19.80
2023-05-13T14:22:47.188Z,19.70
2023-05-13T14:25:15.407Z,19.60
2023-05-13T14:27:45.701Z,19.70
2023-05-13T14:30:14.107Z,19.80
2023-05-13T14:32:45.182Z,19.90
2023-05-13T14:35:14.471Z,19.90
2023-05-13T14:37:42.660Z,19.90
2023-05-13T14:40:11.401Z,19.80
2023-05-13T14:42:39.379Z,19.70
2023-05-13T14:45:10.858Z,19.70
2023-05-13T14:47:40.495Z,19.80
2023-05-13T14:50:12.217Z,19.90
2023-05-13T14:52:40.359Z,20.10
2023-05-13T14:55:08.749Z,20.20
2023-05-13T14:57:36.720Z,20.20
2023-05-13T15:00:05.507Z,20.10
2023-05-13T15:02:33.495Z,20.00
2023-05-13T15:05:01.504Z,20.00
2023-05-13T15:07:30.954Z,20.00
2023-05-13T15:09:59.796Z,19.90
2023-05-13T15:12:27.763Z,19.90
2023-05-13T15:15:02.223Z,20.00
2023-05-13T15:17:30.484Z,20.00
2023-05-13T15:20:02.522Z,19.90
2023-05-13T15:22:42.656Z,19.80
2023-05-13T15:25:14.337Z,19.60
2023-05-13T15:27:42.986Z,19.50
2023-05-13T15:30:13.982Z,19.40
2023-05-13T15:32:42.189Z,19.40
2023-05-13T15:35:11.042Z,19.40
2023-05-13T15:37:50.928Z,19.30
2023-05-13T15:40:23.651Z,19.30
2023-05-13T15:42:52.038Z,19.30
2023-05-13T15:45:20.621Z,19.30
2023-05-13T15:47:48.718Z,19.30
2023-05-13T15:50:17.020Z,19.30
2023-05-13T15:52:47.000Z,19.30
2023-05-13T15:55:14.933Z,19.40
2023-05-13T15:57:42.958Z,19.40
2023-05-13T16:00:14.220Z,19.40
2023-05-13T16:02:44.058Z,19.40
2023-05-13T16:05:15.291Z,19.30
2023-05-13T16:07:44.587Z,19.30
2023-05-13T16:10:15.261Z,19.30
2023-05-13T16:12:43.403Z,19.20
2023-05-13T16:15:12.227Z,19.20
2023-05-13T16:17:40.294Z,19.10
2023-05-13T16:20:19.284Z,19.10
2023-05-13T16:22:47.307Z,19.00
2023-05-13T16:25:18.070Z,19.00
2023-05-13T16:27:46.059Z,19.00
2023-05-13T16:30:17.867Z,19.00
2023-05-13T16:32:48.820Z,19.00
2023-05-13T16:35:16.896Z,19.00
2023-05-13T16:37:47.514Z,19.00
2023-05-13T16:40:19.045Z,18.90
2023-05-13T16:42:47.365Z,18.90
2023-05-13T16:45:15.289Z,18.90
2023-05-13T16:47:43.488Z,18.90
2023-05-13T16:50:11.909Z,18.90
2023-05-13T16:52:40.137Z,18.80
2023-05-13T16:55:09.670Z,18.80
2023-05-13T16:57:39.226Z,18.80
2023-05-13T17:00:08.433Z,18.80
2023-05-13T17:02:37.619Z,18.80
2023-05-13T17:05:06.404Z,18.70
2023-05-13T17:07:37.800Z,18.60
2023-05-13T17:10:10.216Z,18.50
2023-05-13T17:12:40.586Z,18.50
2023-05-13T17:15:13.330Z,18.40
2023-05-13T17:17:41.871Z,18.40
2023-05-13T17:20:12.867Z,18.40
2023-05-13T17:22:44.411Z,18.30
2023-05-13T17:25:12.359Z,18.30
2023-05-13T17:27:46.835Z,18.30
2023-05-13T17:30:16.049Z,18.30
2023-05-13T17:32:44.468Z,18.30
2023-05-13T17:35:12.674Z,18.20
2023-05-13T17:37:40.786Z,18.20
2023-05-13T17:40:10.704Z,18.10
2023-05-13T17:42:39.014Z,18.10
2023-05-13T17:45:09.872Z,18.00
2023-05-13T17:47:38.054Z,17.90
2023-05-13T17:50:06.998Z,17.90
2023-05-13T17:52:35.021Z,17.90
2023-05-13T17:55:03.034Z,17.90
2023-05-13T17:57:31.907Z,17.80
2023-05-13T17:59:59.857Z,17.80
2023-05-13T18:02:32.201Z,17.80
2023-05-13T18:05:01.680Z,17.70
2023-05-13T18:07:29.760Z,17.60
2023-05-13T18:09:57.752Z,17.50
2023-05-13T18:12:28.324Z,17.50
2023-05-13T18:14:57.344Z,17.50
2023-05-13T18:17:25.433Z,17.50
2023-05-13T18:19:54.707Z,17.50
2023-05-13T18:22:22.971Z,17.40
2023-05-13T18:24:51.013Z,17.40
2023-05-13T18:27:19.541Z,17.30
2023-05-13T18:29:47.619Z,17.20
2023-05-13T18:32:15.646Z,17.20
2023-05-13T18:34:43.729Z,17.10
2023-05-13T18:37:13.228Z,17.10
2023-05-13T18:39:41.762Z,17.10
2023-05-13T18:42:09.926Z,17.10
2023-05-13T18:44:38.747Z,17.00
2023-05-13T18:47:07.448Z,17.00
2023-05-13T18:49:35.926Z,16.90
2023-05-13T18:52:04.118Z,16.90
2023-05-13T18:54:33.525Z,16.90
2023-05-13T18:57:01.822Z,16.80
2023-05-13T18:59:29.968Z,16.70
2023-05-13T19:01:58.966Z,16.70
2023-05-13T19:04:27.563Z,16.60
2023-05-13T19:06:56.979Z,16.50
2023-05-13T19:09:25.272Z,16.50
2023-05-13T19:11:54.789Z,16.40
2023-05-13T19:14:22.853Z,16.40
2023-05-13T19:16:53.306Z,16.40
2023-05-13T19:19:21.214Z,16.40
2023-05-13T19:21:52.407Z,16.30
2023-05-13T19:24:21.813Z,16.30
2023-05-13T19:26:49.855Z,16.20
2023-05-13T19:29:19.316Z,16.20
2023-05-13T19:31:47.421Z,16.10
2023-05-13T19:34:15.771Z,16.10
2023-05-13T19:36:45.681Z,16.10
2023-05-13T19:39:13.729Z,16.00
2023-05-13T19:41:41.716Z,16.00
2023-05-13T19:44:09.780Z,16.00
2023-05-13T19:46:39.128Z,16.00
2023-05-13T19:49:07.710Z,15.90
2023-05-13T19:51:35.800Z,15.90
2023-05-13T19:54:03.866Z,15.80
2023-05-13T19:56:31.931Z,15.80
2023-05-13T19:58:59.882Z,15.80
2023-05-13T20:01:27.810Z,15.70
2023-05-13T20:03:57.220Z,15.70
2023-05-13T20:06:26.203Z,15.70
2023-05-13T20:08:54.279Z,15.60
2023-05-13T20:11:22.500Z,15.60
2023-05-13T20:13:50.508Z,15.60
2023-05-13T20:16:22.118Z,15.60
2023-05-13T20:18:50.313Z,15.50
2023-05-13T20:21:19.599Z,15.50
2023-05-13T20:23:47.578Z,15.50
2023-05-13T20:26:15.552Z,15.50
2023-05-13T20:28:45.588Z,15.50
2023-05-13T20:31:13.583Z,15.40
2023-05-13T20:33:41.841Z,15.40
2023-05-13T20:36:09.877Z,15.30
2023-05-13T20:38:39.177Z,15.30
2023-05-13T20:41:07.158Z,15.30
2023-05-13T20:43:35.969Z,15.30
2023-05-13T20:46:04.319Z,15.30
2023-05-13T20:48:33.907Z,15.40
2023-05-13T20:51:04.845Z,15.40
2023-05-13T20:53:33.718Z,15.30
2023-05-13T20:56:04.779Z,15.30
2023-05-13T20:58:33.045Z,15.30
2023-05-13T21:01:01.445Z,15.30
2023-05-13T21:03:29.562Z,15.30
2023-05-13T21:05:57.633Z,15.30
2023-05-13T21:08:25.668Z,15.20
2023-05-13T21:10:56.197Z,15.10
2023-05-13T21:13:26.723Z,15.00
2023-05-13T21:15:55.624Z,14.90
2023-05-13T21:18:24.130Z,14.80
2023-05-13T21:20:52.862Z,14.80
2023-05-13T21:23:20.857Z,14.80
2023-05-13T21:25:48.992Z,14.80
2023-05-13T21:28:17.645Z,14.70
2023-05-13T21:30:47.072Z,14.70
2023-05-13T21:33:16.772Z,14.60
2023-05-13T21:35:44.725Z,14.60
2023-05-13T21:38:12.933Z,14.50
2023-05-13T21:40:41.014Z,14.50
2023-05-13T21:43:09.040Z,14.50
2023-05-13T21:45:37.242Z,14.40
2023-05-13T21:48:07.312Z,14.30
2023-05-13T21:50:35.615Z,14.30
2023-05-13T21:53:04.459Z,14.20
2023-05-13T21:55:35.180Z,14.20
2023-05-13T21:58:03.237Z,14.20
2023-05-13T22:00:31.549Z,14.10
2023-05-13T22:03:00.395Z,14.00
2023-05-13T22:05:30.056Z,14.10
2023-05-13T22:08:00.178Z,14.00
2023-05-13T22:10:28.291Z,14.00
2023-05-13T22:12:56.337Z,13.90
2023-05-13T22:15:24.299Z,13.90
2023-05-13T22:17:52.677Z,13.90
2023-05-13T22:20:21.174Z,13.90
2023-05-13T22:22:50.667Z,13.80
2023-05-13T22:25:18.680Z,13.80
2023-05-13T22:27:48.668Z,13.80
2023-05-13T22:30:16.898Z,13.80
2023-05-13T22:32:45.212Z,13.80
2023-05-13T22:35:13.152Z,13.70
2023-05-13T22:37:41.191Z,13.70
2023-05-13T22:40:12.273Z,13.70
2023-05-13T22:42:40.305Z,13.60
2023-05-13T22:45:09.352Z,13.70
2023-05-13T22:47:37.608Z,13.70
2023-05-13T22:50:06.251Z,13.70
2023-05-13T22:52:34.177Z,13.60
2023-05-13T22:55:02.460Z,13.60
2023-05-13T22:57:31.738Z,13.70
2023-05-13T22:59:59.672Z,13.70
2023-05-13T23:02:27.679Z,13.60
2023-05-13T23:04:55.699Z,13.60
2023-05-13T23:07:23.636Z,13.60
2023-05-13T23:09:51.686Z,13.60
2023-05-13T23:12:20.996Z,13.60
2023-05-13T23:14:50.342Z,13.50
2023-05-13T23:17:19.152Z,13.50
2023-05-13T23:19:47.099Z,13.50
2023-05-13T23:22:15.090Z,13.50
2023-05-13T23:24:43.015Z,13.50
2023-05-13T23:27:11.624Z,13.50
2023-05-13T23:29:39.618Z,13.50
2023-05-13T23:32:11.593Z,13.50
2023-05-13T23:34:39.592Z,13.50
2023-05-13T23:37:07.748Z,13.50
2023-05-13T23:39:36.044Z,13.50
2023-05-13T23:42:04.294Z,13.40
2023-05-13T23:44:33.173Z,13.40
2023-05-13T23:47:01.160Z,13.50
2023-05-13T23:49:30.696Z,13.40
2023-05-13T23:51:58.675Z,13.40
2023-05-13T23:54:26.835Z,13.40
2023-05-13T23:56:54.838Z,13.30
2023-05-13T23:59:22.854Z,13.40
